sensor_id;sensor_type;location;lat;lon;timestamp;temperature;humidity
9201;DHT22;4635;48.686;9.008;2023-02-26T00:01:39;-0.60;72.50
9201;DHT22;4635;48.686;9.008;2023-02-26T00:04:13;-0.70;72.50
9201;DHT22;4635;48.686;9.008;2023-02-26T00:06:48;-0.70;75.50
9201;DHT22;4635;48.686;9.008;2023-02-26T00:09:32;-0.70;76.00
9201;DHT22;4635;48.686;9.008;2023-02-26T00:12:13;-0.70;71.50
9201;DHT22;4635;48.686;9.008;2023-02-26T00:14:48;-0.70;75.90
9201;DHT22;4635;48.686;9.008;2023-02-26T00:17:44;-0.40;73.10
9201;DHT22;4635;48.686;9.008;2023-02-26T00:20:22;-0.70;73.90
9201;DHT22;4635;48.686;9.008;2023-02-26T00:23:08;-0.80;71.40
9201;DHT22;4635;48.686;9.008;2023-02-26T00:25:42;-0.70;77.40
9201;DHT22;4635;48.686;9.008;2023-02-26T00:28:15;-0.70;74.20
9201;DHT22;4635;48.686;9.008;2023-02-26T00:30:49;-0.90;73.10
9201;DHT22;4635;48.686;9.008;2023-02-26T00:33:28;-0.90;74.40
9201;DHT22;4635;48.686;9.008;2023-02-26T00:36:22;-1.00;76.30
9201;DHT22;4635;48.686;9.008;2023-02-26T00:39:09;-1.00;77.90
9201;DHT22;4635;48.686;9.008;2023-02-26T00:41:57;-1.00;77.50
9201;DHT22;4635;48.686;9.008;2023-02-26T00:44:33;-1.00;76.40
9201;DHT22;4635;48.686;9.008;2023-02-26T00:47:15;-1.10;69.50
9201;DHT22;4635;48.686;9.008;2023-02-26T00:50:01;-1.20;71.20
9201;DHT22;4635;48.686;9.008;2023-02-26T00:52:43;-1.20;74.80
9201;DHT22;4635;48.686;9.008;2023-02-26T00:55:19;-1.10;73.70
9201;DHT22;4635;48.686;9.008;2023-02-26T00:57:50;-1.20;72.60
9201;DHT22;4635;48.686;9.008;2023-02-26T01:00:27;-1.20;76.80
9201;DHT22;4635;48.686;9.008;2023-02-26T01:02:58;-1.20;74.50
9201;DHT22;4635;48.686;9.008;2023-02-26T01:05:40;-1.30;79.40
9201;DHT22;4635;48.686;9.008;2023-02-26T01:08:16;-1.30;74.70
9201;DHT22;4635;48.686;9.008;2023-02-26T01:10:55;-1.30;79.10
9201;DHT22;4635;48.686;9.008;2023-02-26T01:13:28;-1.50;78.40
9201;DHT22;4635;48.686;9.008;2023-02-26T01:16:11;-1.40;83.70
9201;DHT22;4635;48.686;9.008;2023-02-26T01:18:53;-1.40;82.90
9201;DHT22;4635;48.686;9.008;2023-02-26T01:21:34;-1.40;85.10
9201;DHT22;4635;48.686;9.008;2023-02-26T01:24:18;-1.10;77.40
9201;DHT22;4635;48.686;9.008;2023-02-26T01:26:53;-1.40;78.00
9201;DHT22;4635;48.686;9.008;2023-02-26T01:29:27;-1.50;82.50
9201;DHT22;4635;48.686;9.008;2023-02-26T01:32:11;-1.50;85.20
9201;DHT22;4635;48.686;9.008;2023-02-26T01:34:51;-1.50;86.10
9201;DHT22;4635;48.686;9.008;2023-02-26T01:37:38;-1.50;82.50
9201;DHT22;4635;48.686;9.008;2023-02-26T01:43:42;-1.50;84.60
9201;DHT22;4635;48.686;9.008;2023-02-26T01:46:17;-1.50;86.90
9201;DHT22;4635;48.686;9.008;2023-02-26T01:48:51;-1.60;85.40
9201;DHT22;4635;48.686;9.008;2023-02-26T01:51:43;-1.70;88.10
9201;DHT22;4635;48.686;9.008;2023-02-26T01:54:24;-1.70;89.10
9201;DHT22;4635;48.686;9.008;2023-02-26T01:56:59;-1.70;91.80
9201;DHT22;4635;48.686;9.008;2023-02-26T01:59:36;-1.80;92.10
9201;DHT22;4635;48.686;9.008;2023-02-26T02:02:09;-1.80;91.00
9201;DHT22;4635;48.686;9.008;2023-02-26T02:04:44;-1.90;92.30
9201;DHT22;4635;48.686;9.008;2023-02-26T02:07:18;-1.90;92.40
9201;DHT22;4635;48.686;9.008;2023-02-26T02:09:53;-1.90;94.40
9201;DHT22;4635;48.686;9.008;2023-02-26T02:12:30;-2.00;94.00
9201;DHT22;4635;48.686;9.008;2023-02-26T02:15:09;-1.80;95.80
9201;DHT22;4635;48.686;9.008;2023-02-26T02:17:49;-2.00;96.80
9201;DHT22;4635;48.686;9.008;2023-02-26T02:23:32;-2.00;97.80
9201;DHT22;4635;48.686;9.008;2023-02-26T02:26:41;-2.00;97.10
9201;DHT22;4635;48.686;9.008;2023-02-26T02:29:29;-1.90;91.90
9201;DHT22;4635;48.686;9.008;2023-02-26T02:32:07;-1.90;92.40
9201;DHT22;4635;48.686;9.008;2023-02-26T02:34:47;-1.90;91.70
9201;DHT22;4635;48.686;9.008;2023-02-26T02:37:22;-1.90;93.70
9201;DHT22;4635;48.686;9.008;2023-02-26T02:40:00;-2.00;91.80
9201;DHT22;4635;48.686;9.008;2023-02-26T02:42:36;-2.10;94.50
9201;DHT22;4635;48.686;9.008;2023-02-26T02:45:13;-2.20;97.10
9201;DHT22;4635;48.686;9.008;2023-02-26T02:47:51;-2.20;97.60
9201;DHT22;4635;48.686;9.008;2023-02-26T02:50:30;-2.20;99.90
9201;DHT22;4635;48.686;9.008;2023-02-26T02:53:05;-2.30;98.40
9201;DHT22;4635;48.686;9.008;2023-02-26T02:55:41;-2.30;99.90
9201;DHT22;4635;48.686;9.008;2023-02-26T02:58:14;-2.40;99.30
9201;DHT22;4635;48.686;9.008;2023-02-26T03:00:48;-2.30;98.90
9201;DHT22;4635;48.686;9.008;2023-02-26T03:03:27;-2.40;99.90
9201;DHT22;4635;48.686;9.008;2023-02-26T03:06:01;-2.50;99.40
9201;DHT22;4635;48.686;9.008;2023-02-26T03:08:35;-2.50;99.90
9201;DHT22;4635;48.686;9.008;2023-02-26T03:11:07;-2.60;99.90
9201;DHT22;4635;48.686;9.008;2023-02-26T03:13:41;-2.60;99.90
9201;DHT22;4635;48.686;9.008;2023-02-26T03:16:22;-2.40;99.90
9201;DHT22;4635;48.686;9.008;2023-02-26T03:19:07;-2.50;99.90
9201;DHT22;4635;48.686;9.008;2023-02-26T03:21:48;-2.50;99.90
9201;DHT22;4635;48.686;9.008;2023-02-26T03:24:26;-2.50;99.90
9201;DHT22;4635;48.686;9.008;2023-02-26T03:27:02;-2.60;99.90
9201;DHT22;4635;48.686;9.008;2023-02-26T03:29:40;-2.70;99.90
9201;DHT22;4635;48.686;9.008;2023-02-26T03:35:34;-2.70;99.90
9201;DHT22;4635;48.686;9.008;2023-02-26T03:38:15;-2.70;99.90
9201;DHT22;4635;48.686;9.008;2023-02-26T03:40:52;-2.70;99.90
9201;DHT22;4635;48.686;9.008;2023-02-26T03:43:29;-2.50;99.90
9201;DHT22;4635;48.686;9.008;2023-02-26T03:46:05;-2.40;99.90
9201;DHT22;4635;48.686;9.008;2023-02-26T03:48:40;-2.40;99.90
9201;DHT22;4635;48.686;9.008;2023-02-26T03:51:21;-2.50;99.90
9201;DHT22;4635;48.686;9.008;2023-02-26T03:53:57;-2.50;99.90
9201;DHT22;4635;48.686;9.008;2023-02-26T03:56:36;-2.50;99.90
9201;DHT22;4635;48.686;9.008;2023-02-26T03:59:13;-2.40;99.90
9201;DHT22;4635;48.686;9.008;2023-02-26T04:01:48;-2.60;99.90
9201;DHT22;4635;48.686;9.008;2023-02-26T04:04:26;-2.70;99.90
9201;DHT22;4635;48.686;9.008;2023-02-26T04:07:15;-2.60;99.90
9201;DHT22;4635;48.686;9.008;2023-02-26T04:09:51;-2.70;99.90
9201;DHT22;4635;48.686;9.008;2023-02-26T04:12:38;-2.70;99.90
9201;DHT22;4635;48.686;9.008;2023-02-26T04:15:11;-2.80;99.90
9201;DHT22;4635;48.686;9.008;2023-02-26T04:17:43;-2.80;99.90
9201;DHT22;4635;48.686;9.008;2023-02-26T04:20:18;-2.80;99.90
9201;DHT22;4635;48.686;9.008;2023-02-26T04:22:54;-2.80;99.90
9201;DHT22;4635;48.686;9.008;2023-02-26T04:25:31;-2.90;99.90
9201;DHT22;4635;48.686;9.008;2023-02-26T04:28:03;-2.90;99.90
9201;DHT22;4635;48.686;9.008;2023-02-26T04:30:35;-2.90;99.90
9201;DHT22;4635;48.686;9.008;2023-02-26T04:33:13;-2.90;99.90
9201;DHT22;4635;48.686;9.008;2023-02-26T04:35:46;-2.90;99.90
9201;DHT22;4635;48.686;9.008;2023-02-26T04:38:27;-2.80;99.90
9201;DHT22;4635;48.686;9.008;2023-02-26T04:40:59;-2.90;99.90
9201;DHT22;4635;48.686;9.008;2023-02-26T04:43:33;-2.90;99.90
9201;DHT22;4635;48.686;9.008;2023-02-26T04:46:05;-3.00;99.90
9201;DHT22;4635;48.686;9.008;2023-02-26T04:48:38;-2.90;99.90
9201;DHT22;4635;48.686;9.008;2023-02-26T04:51:12;-3.00;99.90
9201;DHT22;4635;48.686;9.008;2023-02-26T04:53:52;-3.00;99.90
9201;DHT22;4635;48.686;9.008;2023-02-26T04:56:27;-3.00;99.90
9201;DHT22;4635;48.686;9.008;2023-02-26T04:58:59;-3.10;99.90
9201;DHT22;4635;48.686;9.008;2023-02-26T05:01:31;-3.20;99.90
9201;DHT22;4635;48.686;9.008;2023-02-26T05:04:07;-3.20;99.90
9201;DHT22;4635;48.686;9.008;2023-02-26T05:06:38;-3.30;99.90
9201;DHT22;4635;48.686;9.008;2023-02-26T05:09:15;-3.10;99.90
9201;DHT22;4635;48.686;9.008;2023-02-26T05:11:49;-3.20;99.90
9201;DHT22;4635;48.686;9.008;2023-02-26T05:14:22;-3.10;99.90
9201;DHT22;4635;48.686;9.008;2023-02-26T05:16:56;-3.00;99.90
9201;DHT22;4635;48.686;9.008;2023-02-26T05:19:32;-3.00;99.90
9201;DHT22;4635;48.686;9.008;2023-02-26T05:22:05;-2.90;99.90
9201;DHT22;4635;48.686;9.008;2023-02-26T05:24:39;-2.90;99.90
9201;DHT22;4635;48.686;9.008;2023-02-26T05:27:11;-2.90;99.90
9201;DHT22;4635;48.686;9.008;2023-02-26T05:29:43;-2.90;99.90
9201;DHT22;4635;48.686;9.008;2023-02-26T05:32:17;-3.00;99.90
9201;DHT22;4635;48.686;9.008;2023-02-26T05:34:53;-3.10;99.90
9201;DHT22;4635;48.686;9.008;2023-02-26T05:37:25;-3.10;99.90
9201;DHT22;4635;48.686;9.008;2023-02-26T05:40:01;-3.20;99.90
9201;DHT22;4635;48.686;9.008;2023-02-26T05:42:38;-3.20;99.90
9201;DHT22;4635;48.686;9.008;2023-02-26T05:45:10;-3.20;99.90
9201;DHT22;4635;48.686;9.008;2023-02-26T05:47:43;-3.30;99.90
9201;DHT22;4635;48.686;9.008;2023-02-26T05:52:50;-3.40;99.90
9201;DHT22;4635;48.686;9.008;2023-02-26T05:55:27;-3.50;99.90
9201;DHT22;4635;48.686;9.008;2023-02-26T05:57:59;-3.50;99.90
9201;DHT22;4635;48.686;9.008;2023-02-26T06:00:35;-3.50;99.90
9201;DHT22;4635;48.686;9.008;2023-02-26T06:03:17;-3.50;99.90
9201;DHT22;4635;48.686;9.008;2023-02-26T06:05:53;-3.50;99.90
9201;DHT22;4635;48.686;9.008;2023-02-26T06:08:28;-3.50;99.90
9201;DHT22;4635;48.686;9.008;2023-02-26T06:11:07;-3.50;99.90
9201;DHT22;4635;48.686;9.008;2023-02-26T06:13:40;-3.50;99.90
9201;DHT22;4635;48.686;9.008;2023-02-26T06:16:15;-3.40;99.90
9201;DHT22;4635;48.686;9.008;2023-02-26T06:18:52;-3.40;99.90
9201;DHT22;4635;48.686;9.008;2023-02-26T06:21:28;-3.40;99.90
9201;DHT22;4635;48.686;9.008;2023-02-26T06:24:08;-3.40;99.90
9201;DHT22;4635;48.686;9.008;2023-02-26T06:26:46;-3.40;99.90
9201;DHT22;4635;48.686;9.008;2023-02-26T06:29:23;-3.40;99.90
9201;DHT22;4635;48.686;9.008;2023-02-26T06:31:57;-3.40;99.90
9201;DHT22;4635;48.686;9.008;2023-02-26T06:34:30;-3.50;99.90
9201;DHT22;4635;48.686;9.008;2023-02-26T06:37:02;-3.50;99.90
9201;DHT22;4635;48.686;9.008;2023-02-26T06:39:39;-3.50;99.90
9201;DHT22;4635;48.686;9.008;2023-02-26T06:42:15;-3.40;99.90
9201;DHT22;4635;48.686;9.008;2023-02-26T06:44:46;-3.40;99.90
9201;DHT22;4635;48.686;9.008;2023-02-26T06:47:17;-3.40;99.90
9201;DHT22;4635;48.686;9.008;2023-02-26T06:49:50;-3.40;99.90
9201;DHT22;4635;48.686;9.008;2023-02-26T06:52:27;-3.40;99.90
9201;DHT22;4635;48.686;9.008;2023-02-26T06:55:02;-3.40;99.90
9201;DHT22;4635;48.686;9.008;2023-02-26T06:57:39;-3.40;99.90
9201;DHT22;4635;48.686;9.008;2023-02-26T07:00:11;-3.40;99.90
9201;DHT22;4635;48.686;9.008;2023-02-26T07:02:44;-3.30;99.90
9201;DHT22;4635;48.686;9.008;2023-02-26T07:05:20;-3.30;99.90
9201;DHT22;4635;48.686;9.008;2023-02-26T07:07:53;-3.30;99.90
9201;DHT22;4635;48.686;9.008;2023-02-26T07:10:25;-3.30;99.90
9201;DHT22;4635;48.686;9.008;2023-02-26T07:13:00;-3.20;99.90
9201;DHT22;4635;48.686;9.008;2023-02-26T07:15:33;-3.30;99.90
9201;DHT22;4635;48.686;9.008;2023-02-26T07:18:04;-3.30;99.90
9201;DHT22;4635;48.686;9.008;2023-02-26T07:20:37;-3.30;99.90
9201;DHT22;4635;48.686;9.008;2023-02-26T07:23:22;-3.20;99.90
9201;DHT22;4635;48.686;9.008;2023-02-26T07:25:54;-3.20;99.90
9201;DHT22;4635;48.686;9.008;2023-02-26T07:28:30;-3.10;99.90
9201;DHT22;4635;48.686;9.008;2023-02-26T07:31:03;-3.00;99.90
9201;DHT22;4635;48.686;9.008;2023-02-26T07:33:34;-2.90;99.90
9201;DHT22;4635;48.686;9.008;2023-02-26T07:36:07;-2.80;99.90
9201;DHT22;4635;48.686;9.008;2023-02-26T07:38:38;-2.60;99.90
9201;DHT22;4635;48.686;9.008;2023-02-26T07:41:11;-2.40;1.00
9201;DHT22;4635;48.686;9.008;2023-02-26T07:43:51;-2.20;1.00
9201;DHT22;4635;48.686;9.008;2023-02-26T07:46:23;-2.40;1.00
9201;DHT22;4635;48.686;9.008;2023-02-26T07:48:54;-2.30;1.00
9201;DHT22;4635;48.686;9.008;2023-02-26T07:51:26;-2.10;1.00
9201;DHT22;4635;48.686;9.008;2023-02-26T07:53:57;-2.10;1.00
9201;DHT22;4635;48.686;9.008;2023-02-26T07:56:33;-1.90;99.90
9201;DHT22;4635;48.686;9.008;2023-02-26T07:59:07;-1.90;1.00
9201;DHT22;4635;48.686;9.008;2023-02-26T08:01:38;-1.50;99.90
9201;DHT22;4635;48.686;9.008;2023-02-26T08:04:09;-1.40;1.00
9201;DHT22;4635;48.686;9.008;2023-02-26T08:06:40;-1.50;99.90
9201;DHT22;4635;48.686;9.008;2023-02-26T08:09:13;-1.60;99.90
9201;DHT22;4635;48.686;9.008;2023-02-26T08:11:49;-1.70;1.00
9201;DHT22;4635;48.686;9.008;2023-02-26T08:17:29;-1.70;1.00
9201;DHT22;4635;48.686;9.008;2023-02-26T08:20:01;-1.70;99.90
9201;DHT22;4635;48.686;9.008;2023-02-26T08:22:40;-1.60;99.90
9201;DHT22;4635;48.686;9.008;2023-02-26T08:25:12;-1.50;1.00
9201;DHT22;4635;48.686;9.008;2023-02-26T08:27:43;-1.40;99.90
9201;DHT22;4635;48.686;9.008;2023-02-26T08:30:19;-1.50;1.00
9201;DHT22;4635;48.686;9.008;2023-02-26T08:32:53;-1.50;1.00
9201;DHT22;4635;48.686;9.008;2023-02-26T08:35:26;-1.60;99.90
9201;DHT22;4635;48.686;9.008;2023-02-26T08:38:02;-1.50;1.00
9201;DHT22;4635;48.686;9.008;2023-02-26T08:40:36;-0.60;99.90
9201;DHT22;4635;48.686;9.008;2023-02-26T08:43:10;-0.50;1.00
9201;DHT22;4635;48.686;9.008;2023-02-26T08:45:44;-0.70;1.00
9201;DHT22;4635;48.686;9.008;2023-02-26T08:48:19;-0.90;1.00
9201;DHT22;4635;48.686;9.008;2023-02-26T08:50:50;-1.40;99.90
9201;DHT22;4635;48.686;9.008;2023-02-26T08:53:21;-1.30;1.00
9201;DHT22;4635;48.686;9.008;2023-02-26T08:55:56;-1.30;52.40
9201;DHT22;4635;48.686;9.008;2023-02-26T08:58:27;-1.30;1.00
9201;DHT22;4635;48.686;9.008;2023-02-26T09:01:03;-1.10;1.00
9201;DHT22;4635;48.686;9.008;2023-02-26T09:03:38;-1.00;99.90
9201;DHT22;4635;48.686;9.008;2023-02-26T09:06:12;-0.80;1.00
9201;DHT22;4635;48.686;9.008;2023-02-26T09:08:46;-0.80;1.00
9201;DHT22;4635;48.686;9.008;2023-02-26T09:11:19;-1.10;1.00
9201;DHT22;4635;48.686;9.008;2023-02-26T09:13:58;-1.20;1.00
9201;DHT22;4635;48.686;9.008;2023-02-26T09:16:33;-1.30;99.90
9201;DHT22;4635;48.686;9.008;2023-02-26T09:19:07;-1.70;1.00
9201;DHT22;4635;48.686;9.008;2023-02-26T09:21:41;-2.00;1.00
9201;DHT22;4635;48.686;9.008;2023-02-26T09:24:12;-1.90;1.00
9201;DHT22;4635;48.686;9.008;2023-02-26T09:26:45;-1.70;1.00
9201;DHT22;4635;48.686;9.008;2023-02-26T09:29:16;-1.90;99.90
9201;DHT22;4635;48.686;9.008;2023-02-26T09:31:54;-2.20;1.00
9201;DHT22;4635;48.686;9.008;2023-02-26T09:34:28;-2.00;1.00
9201;DHT22;4635;48.686;9.008;2023-02-26T09:37:05;-1.90;99.90
9201;DHT22;4635;48.686;9.008;2023-02-26T09:39:39;-1.80;99.90
9201;DHT22;4635;48.686;9.008;2023-02-26T09:42:16;-1.90;1.00
9201;DHT22;4635;48.686;9.008;2023-02-26T09:45:06;-1.70;99.90
9201;DHT22;4635;48.686;9.008;2023-02-26T09:47:48;-1.50;1.00
9201;DHT22;4635;48.686;9.008;2023-02-26T09:50:27;-1.70;1.00
9201;DHT22;4635;48.686;9.008;2023-02-26T09:53:06;-1.70;99.90
9201;DHT22;4635;48.686;9.008;2023-02-26T09:55:54;-1.50;1.00
9201;DHT22;4635;48.686;9.008;2023-02-26T09:58:26;-1.50;1.00
9201;DHT22;4635;48.686;9.008;2023-02-26T10:01:08;-1.50;1.00
9201;DHT22;4635;48.686;9.008;2023-02-26T10:04:02;-1.60;25.50
9201;DHT22;4635;48.686;9.008;2023-02-26T10:06:37;-1.70;1.00
9201;DHT22;4635;48.686;9.008;2023-02-26T10:09:35;-1.80;1.00
9201;DHT22;4635;48.686;9.008;2023-02-26T10:12:16;-2.10;1.00
9201;DHT22;4635;48.686;9.008;2023-02-26T10:14:53;-1.80;1.00
9201;DHT22;4635;48.686;9.008;2023-02-26T10:17:29;-1.70;1.00
9201;DHT22;4635;48.686;9.008;2023-02-26T10:20:09;-1.50;1.00
9201;DHT22;4635;48.686;9.008;2023-02-26T10:22:47;-1.30;1.00
9201;DHT22;4635;48.686;9.008;2023-02-26T10:25:27;-1.40;1.00
9201;DHT22;4635;48.686;9.008;2023-02-26T10:28:11;-1.40;99.90
9201;DHT22;4635;48.686;9.008;2023-02-26T10:30:53;-1.40;99.90
9201;DHT22;4635;48.686;9.008;2023-02-26T10:33:46;-1.40;1.00
9201;DHT22;4635;48.686;9.008;2023-02-26T10:36:32;-1.70;1.00
9201;DHT22;4635;48.686;9.008;2023-02-26T10:39:18;-1.60;99.90
9201;DHT22;4635;48.686;9.008;2023-02-26T10:41:56;-1.60;99.90
9201;DHT22;4635;48.686;9.008;2023-02-26T10:44:35;-1.50;99.90
9201;DHT22;4635;48.686;9.008;2023-02-26T10:47:15;-1.60;99.90
9201;DHT22;4635;48.686;9.008;2023-02-26T10:49:53;-1.70;1.00
9201;DHT22;4635;48.686;9.008;2023-02-26T10:52:30;-1.70;99.90
9201;DHT22;4635;48.686;9.008;2023-02-26T10:55:12;-1.50;1.00
9201;DHT22;4635;48.686;9.008;2023-02-26T10:57:55;-1.30;1.00
9201;DHT22;4635;48.686;9.008;2023-02-26T11:00:40;-1.00;33.90
9201;DHT22;4635;48.686;9.008;2023-02-26T11:03:15;-1.20;34.80
9201;DHT22;4635;48.686;9.008;2023-02-26T11:05:52;-1.20;1.00
9201;DHT22;4635;48.686;9.008;2023-02-26T11:08:27;-1.10;99.90
9201;DHT22;4635;48.686;9.008;2023-02-26T11:11:01;-1.10;99.90
9201;DHT22;4635;48.686;9.008;2023-02-26T11:13:40;-1.10;99.90
9201;DHT22;4635;48.686;9.008;2023-02-26T11:16:25;-0.60;1.00
9201;DHT22;4635;48.686;9.008;2023-02-26T11:19:05;-0.50;99.90
9201;DHT22;4635;48.686;9.008;2023-02-26T11:21:40;-0.30;99.90
9201;DHT22;4635;48.686;9.008;2023-02-26T11:24:30;-0.20;1.00
9201;DHT22;4635;48.686;9.008;2023-02-26T11:27:06;0.00;1.00
9201;DHT22;4635;48.686;9.008;2023-02-26T11:29:46;0.00;1.00
9201;DHT22;4635;48.686;9.008;2023-02-26T11:32:22;-0.10;1.00
9201;DHT22;4635;48.686;9.008;2023-02-26T11:34:54;-0.40;1.00
9201;DHT22;4635;48.686;9.008;2023-02-26T11:37:46;-0.60;99.90
9201;DHT22;4635;48.686;9.008;2023-02-26T11:40:38;-0.80;1.00
9201;DHT22;4635;48.686;9.008;2023-02-26T11:43:18;-0.80;1.00
9201;DHT22;4635;48.686;9.008;2023-02-26T11:46:01;-0.70;1.00
9201;DHT22;4635;48.686;9.008;2023-02-26T11:49:16;-0.70;1.00
9201;DHT22;4635;48.686;9.008;2023-02-26T11:52:21;-1.00;1.00
9201;DHT22;4635;48.686;9.008;2023-02-26T11:54:58;-1.10;99.90
9201;DHT22;4635;48.686;9.008;2023-02-26T11:57:43;-0.90;1.00
9201;DHT22;4635;48.686;9.008;2023-02-26T12:00:25;-0.80;1.00
9201;DHT22;4635;48.686;9.008;2023-02-26T12:06:30;-0.60;1.00
9201;DHT22;4635;48.686;9.008;2023-02-26T12:09:21;-0.50;99.90
9201;DHT22;4635;48.686;9.008;2023-02-26T12:12:23;-0.60;1.00
9201;DHT22;4635;48.686;9.008;2023-02-26T12:21:57;-0.50;99.90
9201;DHT22;4635;48.686;9.008;2023-02-26T12:27:40;-0.60;99.90
9201;DHT22;4635;48.686;9.008;2023-02-26T12:30:46;-0.50;1.00
9201;DHT22;4635;48.686;9.008;2023-02-26T12:33:49;-0.70;1.00
9201;DHT22;4635;48.686;9.008;2023-02-26T12:36:48;-0.20;99.90
9201;DHT22;4635;48.686;9.008;2023-02-26T12:39:34;-0.90;99.90
9201;DHT22;4635;48.686;9.008;2023-02-26T12:42:21;-0.70;67.10
9201;DHT22;4635;48.686;9.008;2023-02-26T12:45:23;0.20;99.90
9201;DHT22;4635;48.686;9.008;2023-02-26T12:51:04;-0.20;99.90
9201;DHT22;4635;48.686;9.008;2023-02-26T12:54:00;-0.40;99.90
9201;DHT22;4635;48.686;9.008;2023-02-26T12:57:17;-0.60;1.00
9201;DHT22;4635;48.686;9.008;2023-02-26T13:00:32;-0.70;1.00
9201;DHT22;4635;48.686;9.008;2023-02-26T13:09:34;-0.40;1.00
9201;DHT22;4635;48.686;9.008;2023-02-26T13:12:29;-0.50;1.00
9201;DHT22;4635;48.686;9.008;2023-02-26T13:15:23;-0.50;1.00
9201;DHT22;4635;48.686;9.008;2023-02-26T13:18:03;-0.30;1.00
9201;DHT22;4635;48.686;9.008;2023-02-26T13:20:51;0.00;99.90
9201;DHT22;4635;48.686;9.008;2023-02-26T13:23:32;0.00;29.00
9201;DHT22;4635;48.686;9.008;2023-02-26T13:26:23;0.00;99.90
9201;DHT22;4635;48.686;9.008;2023-02-26T13:29:13;-0.20;99.90
9201;DHT22;4635;48.686;9.008;2023-02-26T13:31:55;-0.50;99.90
9201;DHT22;4635;48.686;9.008;2023-02-26T13:34:47;-0.40;1.00
9201;DHT22;4635;48.686;9.008;2023-02-26T13:37:40;-0.20;99.90
9201;DHT22;4635;48.686;9.008;2023-02-26T13:40:34;0.10;1.00
9201;DHT22;4635;48.686;9.008;2023-02-26T13:43:34;-0.30;1.00
9201;DHT22;4635;48.686;9.008;2023-02-26T13:46:41;-0.20;1.00
9201;DHT22;4635;48.686;9.008;2023-02-26T13:49:22;0.00;88.40
9201;DHT22;4635;48.686;9.008;2023-02-26T13:52:06;-0.10;1.00
9201;DHT22;4635;48.686;9.008;2023-02-26T13:55:00;-0.10;1.00
9201;DHT22;4635;48.686;9.008;2023-02-26T14:01:04;-0.20;1.00
9201;DHT22;4635;48.686;9.008;2023-02-26T14:03:44;-0.10;99.90
9201;DHT22;4635;48.686;9.008;2023-02-26T14:06:37;0.00;99.90
9201;DHT22;4635;48.686;9.008;2023-02-26T14:12:39;0.50;99.90
9201;DHT22;4635;48.686;9.008;2023-02-26T14:15:55;0.90;99.90
9201;DHT22;4635;48.686;9.008;2023-02-26T14:19:13;0.90;99.90
9201;DHT22;4635;48.686;9.008;2023-02-26T14:22:00;0.60;99.90
9201;DHT22;4635;48.686;9.008;2023-02-26T14:24:43;0.60;99.90
9201;DHT22;4635;48.686;9.008;2023-02-26T14:34:52;1.10;99.90
9201;DHT22;4635;48.686;9.008;2023-02-26T14:37:46;0.80;99.90
9201;DHT22;4635;48.686;9.008;2023-02-26T14:40:39;1.00;99.90
9201;DHT22;4635;48.686;9.008;2023-02-26T14:43:21;1.10;88.80
9201;DHT22;4635;48.686;9.008;2023-02-26T14:46:03;1.30;90.20
9201;DHT22;4635;48.686;9.008;2023-02-26T14:48:45;1.10;51.00
9201;DHT22;4635;48.686;9.008;2023-02-26T14:58:17;1.00;28.30
9201;DHT22;4635;48.686;9.008;2023-02-26T15:01:14;1.10;78.20
9201;DHT22;4635;48.686;9.008;2023-02-26T15:04:16;1.00;99.90
9201;DHT22;4635;48.686;9.008;2023-02-26T15:07:10;1.30;99.90
9201;DHT22;4635;48.686;9.008;2023-02-26T15:10:05;2.60;99.90
9201;DHT22;4635;48.686;9.008;2023-02-26T15:12:58;2.40;99.90
9201;DHT22;4635;48.686;9.008;2023-02-26T15:22:37;1.30;98.20
9201;DHT22;4635;48.686;9.008;2023-02-26T15:25:32;0.70;29.10
9201;DHT22;4635;48.686;9.008;2023-02-26T15:28:22;0.60;14.90
9201;DHT22;4635;48.686;9.008;2023-02-26T15:31:07;0.70;1.00
9201;DHT22;4635;48.686;9.008;2023-02-26T15:33:56;0.90;7.70
9201;DHT22;4635;48.686;9.008;2023-02-26T15:36:49;0.90;26.50
9201;DHT22;4635;48.686;9.008;2023-02-26T15:39:58;0.80;21.30
9201;DHT22;4635;48.686;9.008;2023-02-26T15:42:34;0.70;1.00
9201;DHT22;4635;48.686;9.008;2023-02-26T15:45:27;0.70;14.90
9201;DHT22;4635;48.686;9.008;2023-02-26T15:48:08;0.50;21.50
9201;DHT22;4635;48.686;9.008;2023-02-26T15:50:56;0.40;1.00
9201;DHT22;4635;48.686;9.008;2023-02-26T15:53:44;0.20;1.00
9201;DHT22;4635;48.686;9.008;2023-02-26T15:56:46;0.30;1.00
9201;DHT22;4635;48.686;9.008;2023-02-26T15:59:34;0.30;1.00
9201;DHT22;4635;48.686;9.008;2023-02-26T16:02:14;0.30;1.00
9201;DHT22;4635;48.686;9.008;2023-02-26T16:05:00;0.30;1.00
9201;DHT22;4635;48.686;9.008;2023-02-26T16:07:44;0.30;1.00
9201;DHT22;4635;48.686;9.008;2023-02-26T16:11:02;0.40;1.00
9201;DHT22;4635;48.686;9.008;2023-02-26T16:15:06;0.20;1.00
9201;DHT22;4635;48.686;9.008;2023-02-26T16:17:24;0.10;1.00
9201;DHT22;4635;48.686;9.008;2023-02-26T16:20:03;0.20;1.00
9201;DHT22;4635;48.686;9.008;2023-02-26T16:22:54;0.20;1.00
9201;DHT22;4635;48.686;9.008;2023-02-26T16:25:52;0.30;1.00
9201;DHT22;4635;48.686;9.008;2023-02-26T16:31:57;0.20;1.00
9201;DHT22;4635;48.686;9.008;2023-02-26T16:42:18;-0.10;1.00
9201;DHT22;4635;48.686;9.008;2023-02-26T16:45:31;-0.10;1.00
9201;DHT22;4635;48.686;9.008;2023-02-26T16:48:25;-0.10;1.00
9201;DHT22;4635;48.686;9.008;2023-02-26T16:57:06;-0.10;1.00
9201;DHT22;4635;48.686;9.008;2023-02-26T16:59:58;-0.10;1.00
9201;DHT22;4635;48.686;9.008;2023-02-26T17:05:52;-0.20;1.00
9201;DHT22;4635;48.686;9.008;2023-02-26T17:08:46;-0.20;1.00
9201;DHT22;4635;48.686;9.008;2023-02-26T17:11:29;-0.20;1.00
9201;DHT22;4635;48.686;9.008;2023-02-26T17:14:23;-0.30;1.00
9201;DHT22;4635;48.686;9.008;2023-02-26T17:17:10;-0.30;1.00
9201;DHT22;4635;48.686;9.008;2023-02-26T17:19:56;-0.20;1.00
9201;DHT22;4635;48.686;9.008;2023-02-26T17:22:49;-0.20;1.00
9201;DHT22;4635;48.686;9.008;2023-02-26T17:25:25;-0.20;1.00
9201;DHT22;4635;48.686;9.008;2023-02-26T17:28:14;-0.30;1.00
9201;DHT22;4635;48.686;9.008;2023-02-26T17:31:18;-0.30;1.00
9201;DHT22;4635;48.686;9.008;2023-02-26T17:34:08;-0.30;1.00
9201;DHT22;4635;48.686;9.008;2023-02-26T17:36:58;-0.40;1.00
9201;DHT22;4635;48.686;9.008;2023-02-26T17:40:13;-0.40;1.00
9201;DHT22;4635;48.686;9.008;2023-02-26T17:42:56;-0.50;1.00
9201;DHT22;4635;48.686;9.008;2023-02-26T17:45:46;-0.40;1.00
9201;DHT22;4635;48.686;9.008;2023-02-26T17:48:22;-0.40;1.00
9201;DHT22;4635;48.686;9.008;2023-02-26T17:51:07;-0.50;1.00
9201;DHT22;4635;48.686;9.008;2023-02-26T17:53:51;-0.50;1.00
9201;DHT22;4635;48.686;9.008;2023-02-26T17:59:50;-0.60;1.00
9201;DHT22;4635;48.686;9.008;2023-02-26T18:02:36;-0.70;1.00
9201;DHT22;4635;48.686;9.008;2023-02-26T18:05:33;-0.70;1.00
9201;DHT22;4635;48.686;9.008;2023-02-26T18:08:29;-0.60;1.00
9201;DHT22;4635;48.686;9.008;2023-02-26T18:11:19;-0.60;1.00
9201;DHT22;4635;48.686;9.008;2023-02-26T18:14:13;-0.70;1.00
9201;DHT22;4635;48.686;9.008;2023-02-26T18:17:01;-0.80;1.00
9201;DHT22;4635;48.686;9.008;2023-02-26T18:19:43;-0.80;1.00
9201;DHT22;4635;48.686;9.008;2023-02-26T18:22:21;-0.90;1.00
9201;DHT22;4635;48.686;9.008;2023-02-26T18:25:00;-0.90;1.00
9201;DHT22;4635;48.686;9.008;2023-02-26T18:27:41;-1.00;1.00
9201;DHT22;4635;48.686;9.008;2023-02-26T18:30:36;-1.10;1.00
9201;DHT22;4635;48.686;9.008;2023-02-26T18:33:32;-1.00;1.00
9201;DHT22;4635;48.686;9.008;2023-02-26T18:36:09;-1.10;1.00
9201;DHT22;4635;48.686;9.008;2023-02-26T18:38:53;-1.20;1.00
9201;DHT22;4635;48.686;9.008;2023-02-26T18:41:31;-1.10;1.00
9201;DHT22;4635;48.686;9.008;2023-02-26T18:44:14;-1.20;1.00
9201;DHT22;4635;48.686;9.008;2023-02-26T18:46:47;-1.20;1.00
9201;DHT22;4635;48.686;9.008;2023-02-26T18:49:23;-1.20;1.00
9201;DHT22;4635;48.686;9.008;2023-02-26T18:52:08;-1.30;1.00
9201;DHT22;4635;48.686;9.008;2023-02-26T18:54:41;-1.20;1.00
9201;DHT22;4635;48.686;9.008;2023-02-26T18:57:19;-1.10;1.00
9201;DHT22;4635;48.686;9.008;2023-02-26T18:59:55;-1.20;1.00
9201;DHT22;4635;48.686;9.008;2023-02-26T19:02:35;-1.20;1.00
9201;DHT22;4635;48.686;9.008;2023-02-26T19:05:19;-1.20;1.00
9201;DHT22;4635;48.686;9.008;2023-02-26T19:07:55;-1.20;1.00
9201;DHT22;4635;48.686;9.008;2023-02-26T19:10:37;-1.10;1.00